createdAt,value
2023-01-25T00:00:13.124Z,6.07
2023-01-25T00:02:41.585Z,6.67
2023-01-25T00:05:10.820Z,6.47
2023-01-25T00:07:40.634Z,7.67
2023-01-25T00:10:10.552Z,7.30
2023-01-25T00:12:42.092Z,6.80
2023-01-25T00:15:11.779Z,6.17
2023-01-25T00:17:40.263Z,5.60
2023-01-25T00:20:10.824Z,8.10
2023-01-25T00:22:40.550Z,6.77
2023-01-25T00:25:10.102Z,6.93
2023-01-25T00:27:38.648Z,6.40
2023-01-25T00:30:08.816Z,7.10
2023-01-25T00:32:55.472Z,6.90
2023-01-25T00:35:24.061Z,7.33
2023-01-25T00:37:55.509Z,7.33
2023-01-25T00:40:24.203Z,7.07
2023-01-25T00:42:53.222Z,7.00
2023-01-25T00:45:21.756Z,7.23
2023-01-25T00:47:50.589Z,6.50
2023-01-25T00:50:19.267Z,6.17
2023-01-25T00:52:47.651Z,6.47
2023-01-25T00:55:17.711Z,6.90
2023-01-25T00:57:46.137Z,6.93
2023-01-25T01:00:17.960Z,6.90
2023-01-25T01:02:46.480Z,7.20
2023-01-25T01:05:15.228Z,7.63
2023-01-25T01:07:44.055Z,7.70
2023-01-25T01:10:13.028Z,7.50
2023-01-25T01:12:42.829Z,7.37
2023-01-25T01:15:11.803Z,8.60
2023-01-25T01:17:40.140Z,7.90
2023-01-25T01:20:10.231Z,6.53
2023-01-25T01:22:38.585Z,7.27
2023-01-25T01:25:09.118Z,7.30
2023-01-25T01:27:37.737Z,7.23
2023-01-25T01:30:09.636Z,7.90
2023-01-25T01:32:38.049Z,7.47
2023-01-25T01:35:08.024Z,8.67
2023-01-25T01:37:36.787Z,8.27
2023-01-25T01:40:05.798Z,7.83
2023-01-25T01:42:34.380Z,8.00
2023-01-25T01:45:03.066Z,7.30
2023-01-25T01:47:46.173Z,7.17
2023-01-25T01:50:21.743Z,7.07
2023-01-25T01:52:50.776Z,7.33
2023-01-25T01:55:24.304Z,7.23
2023-01-25T01:57:58.174Z,7.37
2023-01-25T02:00:30.869Z,6.90
2023-01-25T02:03:01.223Z,7.57
2023-01-25T02:05:35.856Z,7.20
2023-01-25T02:08:06.879Z,7.50
2023-01-25T02:10:37.174Z,8.13
2023-01-25T02:13:05.546Z,8.10
2023-01-25T02:15:42.630Z,6.60
2023-01-25T02:18:13.802Z,7.40
2023-01-25T02:20:45.259Z,7.90
2023-01-25T02:23:22.852Z,7.40
2023-01-25T02:25:53.664Z,7.00
2023-01-25T02:28:26.627Z,7.60
2023-01-25T02:30:55.887Z,7.23
2023-01-25T02:33:25.988Z,7.27
2023-01-25T02:36:08.574Z,6.63
2023-01-25T02:38:40.481Z,7.80
2023-01-25T02:41:15.404Z,8.10
2023-01-25T02:43:44.048Z,6.47
2023-01-25T02:46:19.469Z,7.37
2023-01-25T02:48:48.207Z,7.87
2023-01-25T02:51:16.826Z,6.83
2023-01-25T02:53:48.064Z,6.93
2023-01-25T02:56:18.590Z,6.60
2023-01-25T02:58:47.664Z,6.20
2023-01-25T03:01:16.514Z,6.80
2023-01-25T03:03:45.335Z,7.60
2023-01-25T03:06:13.784Z,6.83
2023-01-25T03:08:42.326Z,6.40
2023-01-25T03:11:10.835Z,7.80
2023-01-25T03:13:40.708Z,6.30
2023-01-25T03:16:12.191Z,6.23
2023-01-25T03:18:41.865Z,5.80
2023-01-25T03:21:13.123Z,6.90
2023-01-25T03:23:42.551Z,6.63
2023-01-25T03:26:13.951Z,6.77
2023-01-25T03:28:45.094Z,7.57
2023-01-25T03:31:17.838Z,6.83
2023-01-25T03:33:47.121Z,7.50
2023-01-25T03:36:16.055Z,7.30
2023-01-25T03:38:45.368Z,7.17
2023-01-25T03:41:15.130Z,7.80
2023-01-25T03:43:45.793Z,7.27
2023-01-25T03:46:15.583Z,7.80
2023-01-25T03:48:44.957Z,6.33
2023-01-25T03:51:13.939Z,6.57
2023-01-25T03:53:43.838Z,6.90
2023-01-25T03:56:20.606Z,6.67
2023-01-25T03:58:51.231Z,7.07
2023-01-25T04:01:20.515Z,8.00
2023-01-25T04:03:50.193Z,6.20
2023-01-25T04:06:19.671Z,7.87
2023-01-25T04:08:49.100Z,7.03
2023-01-25T04:11:19.143Z,6.80
2023-01-25T04:13:49.997Z,6.70
2023-01-25T04:16:19.413Z,6.93
2023-01-25T04:18:49.083Z,6.30
2023-01-25T04:21:18.129Z,6.40
2023-01-25T04:23:46.939Z,6.70
2023-01-25T04:26:16.490Z,7.33
2023-01-25T04:28:45.742Z,7.47
2023-01-25T04:31:16.409Z,6.00
2023-01-25T04:33:49.058Z,6.87
2023-01-25T04:36:19.344Z,6.47
2023-01-25T04:38:49.349Z,6.23
2023-01-25T04:41:18.978Z,5.80
2023-01-25T04:43:47.920Z,6.83
2023-01-25T04:46:21.206Z,7.20
2023-01-25T04:48:50.426Z,6.90
2023-01-25T04:51:18.696Z,6.97
2023-01-25T04:53:46.987Z,6.40
2023-01-25T04:56:18.552Z,5.93
2023-01-25T04:58:46.545Z,6.77
2023-01-25T05:01:15.934Z,5.70
2023-01-25T05:03:45.298Z,6.40
2023-01-25T05:06:13.270Z,6.37
2023-01-25T05:08:41.303Z,7.03
2023-01-25T05:11:09.286Z,6.37
2023-01-25T05:13:37.258Z,6.40
2023-01-25T05:16:07.690Z,5.90
2023-01-25T05:18:47.843Z,6.70
2023-01-25T05:21:31.916Z,6.70
2023-01-25T05:24:00.289Z,8.47
2023-01-25T05:26:45.879Z,7.50
2023-01-25T05:29:14.087Z,7.73
2023-01-25T05:31:42.076Z,7.30
2023-01-25T05:34:10.754Z,8.10
2023-01-25T05:36:40.062Z,6.90
2023-01-25T05:39:09.033Z,6.07
2023-01-25T05:41:37.146Z,8.83
2023-01-25T05:44:05.732Z,8.03
2023-01-25T05:46:33.743Z,8.37
2023-01-25T05:49:01.829Z,6.57
2023-01-25T05:51:29.970Z,6.60
2023-01-25T05:53:59.408Z,6.10
2023-01-25T05:56:27.418Z,7.50
2023-01-25T05:58:55.772Z,6.97
2023-01-25T06:01:24.222Z,7.27
2023-01-25T06:03:52.655Z,6.37
2023-01-25T06:06:21.067Z,7.07
2023-01-25T06:08:49.848Z,7.40
2023-01-25T06:11:22.639Z,7.50
2023-01-25T06:13:51.985Z,8.30
2023-01-25T06:16:21.174Z,6.87
2023-01-25T06:18:49.181Z,7.13
2023-01-25T06:21:17.233Z,8.17
2023-01-25T06:23:46.338Z,6.87
2023-01-25T06:26:15.976Z,7.00
2023-01-25T06:28:45.327Z,7.40
2023-01-25T06:31:15.593Z,7.43
2023-01-25T06:33:44.303Z,7.67
2023-01-25T06:36:15.102Z,7.17
2023-01-25T06:38:43.996Z,6.40
2023-01-25T06:41:13.139Z,9.00
2023-01-25T06:43:41.319Z,7.97
2023-01-25T06:46:12.637Z,7.83
2023-01-25T06:48:41.739Z,6.90
2023-01-25T06:51:11.801Z,6.50
2023-01-25T06:53:43.748Z,6.70
2023-01-25T06:56:14.906Z,6.93
2023-01-25T06:58:43.043Z,6.10
2023-01-25T07:01:19.621Z,7.73
2023-01-25T07:03:50.166Z,6.67
2023-01-25T07:06:19.353Z,6.43
2023-01-25T07:08:47.831Z,6.17
2023-01-25T07:11:19.005Z,6.40
2023-01-25T07:13:49.228Z,6.17
2023-01-25T07:16:21.710Z,7.67
2023-01-25T07:18:50.486Z,7.80
2023-01-25T07:21:21.347Z,5.87
2023-01-25T07:23:50.768Z,7.77
2023-01-25T07:26:21.805Z,8.23
2023-01-25T07:28:50.949Z,8.47
2023-01-25T07:31:21.729Z,7.07
2023-01-25T07:33:50.329Z,7.43
2023-01-25T07:36:19.140Z,7.10
2023-01-25T07:38:47.505Z,7.90
2023-01-25T07:41:16.352Z,8.13
2023-01-25T07:43:44.471Z,6.60
2023-01-25T07:46:15.457Z,7.00
2023-01-25T07:48:48.507Z,7.50
2023-01-25T07:51:26.981Z,7.73
2023-01-25T07:53:57.183Z,8.77
2023-01-25T07:56:27.678Z,7.30
2023-01-25T07:58:57.005Z,8.57
2023-01-25T08:01:27.716Z,8.13
2023-01-25T08:03:57.952Z,7.13
2023-01-25T08:06:30.577Z,6.70
2023-01-25T08:09:00.135Z,8.10
2023-01-25T08:11:30.597Z,8.77
2023-01-25T08:13:58.736Z,6.20
2023-01-25T08:16:29.911Z,8.00
2023-01-25T08:19:01.186Z,7.93
2023-01-25T08:21:32.526Z,7.70
2023-01-25T08:24:03.555Z,7.67
2023-01-25T08:26:33.198Z,6.27
2023-01-25T08:29:01.427Z,8.00
2023-01-25T08:31:31.694Z,6.60
2023-01-25T08:34:02.262Z,8.70
2023-01-25T08:36:30.645Z,7.80
2023-01-25T08:39:22.964Z,7.50
2023-01-25T08:42:14.331Z,8.40
2023-01-25T08:44:42.943Z,7.03
2023-01-25T08:47:11.058Z,8.10
2023-01-25T08:49:40.415Z,7.60
2023-01-25T08:52:08.594Z,7.53
2023-01-25T08:54:36.667Z,6.63
2023-01-25T08:57:06.231Z,7.90
2023-01-25T08:59:35.010Z,8.57
2023-01-25T09:02:04.379Z,6.60
2023-01-25T09:04:33.024Z,6.33
2023-01-25T09:07:02.357Z,8.30
2023-01-25T09:09:34.374Z,6.97
2023-01-25T09:12:03.034Z,6.10
2023-01-25T09:14:31.072Z,7.20
2023-01-25T09:16:59.052Z,6.80
2023-01-25T09:19:27.151Z,5.57
2023-01-25T09:21:55.216Z,6.70
2023-01-25T09:24:52.151Z,6.60
2023-01-25T09:27:20.432Z,5.67
2023-01-25T09:30:01.034Z,5.30
2023-01-25T09:32:31.879Z,6.00
2023-01-25T09:34:59.968Z,6.60
2023-01-25T09:37:28.115Z,4.97
2023-01-25T09:39:57.433Z,5.83
2023-01-25T09:42:46.641Z,5.80
2023-01-25T09:45:31.726Z,6.37
2023-01-25T09:48:17.827Z,5.40
2023-01-25T09:51:07.274Z,5.30
2023-01-25T09:53:38.200Z,5.70
2023-01-25T09:56:14.659Z,4.40
2023-01-25T09:58:47.144Z,4.23
2023-01-25T10:01:38.239Z,5.40
2023-01-25T10:04:16.255Z,4.30
2023-01-25T10:06:59.722Z,5.40
2023-01-25T10:09:42.438Z,5.10
2023-01-25T10:12:17.908Z,5.70
2023-01-25T10:14:45.950Z,6.40
2023-01-25T10:17:30.294Z,5.67
2023-01-25T10:20:24.084Z,6.00
2023-01-25T10:23:05.768Z,5.40
2023-01-25T10:25:41.708Z,5.23
2023-01-25T10:28:30.019Z,4.90
2023-01-25T10:31:02.351Z,5.63
2023-01-25T10:33:36.311Z,5.07
2023-01-25T10:36:07.052Z,4.80
2023-01-25T10:38:42.470Z,6.33
2023-01-25T10:41:19.163Z,4.47
2023-01-25T10:44:08.810Z,6.60
2023-01-25T10:46:39.066Z,5.00
2023-01-25T10:49:23.243Z,4.70
2023-01-25T10:51:51.380Z,5.70
2023-01-25T10:54:19.655Z,6.43
2023-01-25T10:56:48.902Z,4.93
2023-01-25T10:59:24.126Z,5.20
2023-01-25T11:01:52.940Z,4.23
2023-01-25T11:04:34.815Z,5.20
2023-01-25T11:07:06.013Z,4.60
2023-01-25T11:09:38.395Z,5.57
2023-01-25T11:12:18.944Z,4.80
2023-01-25T11:14:50.772Z,5.20
2023-01-25T11:17:30.059Z,4.73
2023-01-25T11:20:20.289Z,5.83
2023-01-25T11:22:53.987Z,4.50
2023-01-25T11:25:31.964Z,6.10
2023-01-25T11:28:18.152Z,7.00
2023-01-25T11:30:48.961Z,6.43
2023-01-25T11:33:20.601Z,6.83
2023-01-25T11:36:22.914Z,7.80
2023-01-25T11:39:14.175Z,7.07
2023-01-25T11:42:08.037Z,7.20
2023-01-25T11:45:06.101Z,7.03
2023-01-25T11:47:54.427Z,5.90
2023-01-25T11:50:30.565Z,7.70
2023-01-25T11:53:21.939Z,7.47
2023-01-25T11:55:56.984Z,6.40
2023-01-25T11:58:44.113Z,7.23
2023-01-25T12:01:20.095Z,6.00
2023-01-25T12:04:40.377Z,6.40
2023-01-25T12:07:17.624Z,7.87
2023-01-25T12:10:05.150Z,7.83
2023-01-25T12:12:44.098Z,6.93
2023-01-25T12:15:42.341Z,6.07
2023-01-25T12:18:52.260Z,7.87
2023-01-25T12:21:39.498Z,8.27
2023-01-25T12:24:25.474Z,8.03
2023-01-25T12:27:01.668Z,6.90
2023-01-25T12:29:36.197Z,7.50
2023-01-25T12:32:10.391Z,8.43
2023-01-25T12:34:41.953Z,6.97
2023-01-25T12:37:17.921Z,9.23
2023-01-25T12:39:51.048Z,7.43
2023-01-25T12:42:25.908Z,8.20
2023-01-25T12:45:00.938Z,8.40
2023-01-25T12:47:36.047Z,8.60
2023-01-25T12:50:15.811Z,8.50
2023-01-25T12:52:50.408Z,8.00
2023-01-25T12:55:19.870Z,14.90
2023-01-25T12:57:57.907Z,9.27
2023-01-25T13:00:34.696Z,8.10
2023-01-25T13:03:22.322Z,8.00
2023-01-25T13:05:55.182Z,7.23
2023-01-25T13:08:37.104Z,9.93
2023-01-25T13:11:15.964Z,6.63
2023-01-25T13:13:44.251Z,6.17
2023-01-25T13:16:41.053Z,6.53
2023-01-25T13:19:22.077Z,5.93
2023-01-25T13:21:52.850Z,6.20
2023-01-25T13:24:25.117Z,6.73
2023-01-25T13:27:06.290Z,6.77
2023-01-25T13:30:03.372Z,8.07
2023-01-25T13:33:07.238Z,8.20
2023-01-25T13:35:44.432Z,6.67
2023-01-25T13:38:39.389Z,6.63
2023-01-25T13:41:19.257Z,6.97
2023-01-25T13:43:54.100Z,7.53
2023-01-25T13:46:25.087Z,8.53
2023-01-25T13:49:05.379Z,6.10
2023-01-25T13:51:40.149Z,7.20
2023-01-25T13:54:16.702Z,8.13
2023-01-25T13:56:46.246Z,7.60
2023-01-25T13:59:28.576Z,8.47
2023-01-25T14:01:57.190Z,8.47
2023-01-25T14:04:25.571Z,7.17
2023-01-25T14:06:58.147Z,5.20
2023-01-25T14:09:26.704Z,5.70
2023-01-25T14:11:59.653Z,5.77
2023-01-25T14:14:33.219Z,6.13
2023-01-25T14:17:17.248Z,5.23
2023-01-25T14:19:49.622Z,5.47
2023-01-25T14:22:25.753Z,4.90
2023-01-25T14:25:12.691Z,5.30
2023-01-25T14:27:47.615Z,5.30
2023-01-25T14:30:22.660Z,4.73
2023-01-25T14:32:52.802Z,5.30
2023-01-25T14:35:54.351Z,8.30
2023-01-25T14:38:28.390Z,5.73
2023-01-25T14:41:01.825Z,5.60
2023-01-25T14:43:32.556Z,6.47
2023-01-25T14:46:00.993Z,5.80
2023-01-25T14:48:43.037Z,5.90
2023-01-25T14:51:27.572Z,6.67
2023-01-25T14:54:02.612Z,6.80
2023-01-25T14:56:36.456Z,7.37
2023-01-25T14:59:07.360Z,7.30
2023-01-25T15:01:40.463Z,7.10
2023-01-25T15:04:13.614Z,8.07
2023-01-25T15:06:49.984Z,8.80
2023-01-25T15:10:02.973Z,7.50
2023-01-25T15:12:32.885Z,8.60
2023-01-25T15:15:02.836Z,8.33
2023-01-25T15:17:42.945Z,6.60
2023-01-25T15:20:36.270Z,8.50
2023-01-25T15:23:24.941Z,8.63
2023-01-25T15:25:55.511Z,10.80
2023-01-25T15:28:25.466Z,9.03
2023-01-25T15:30:57.559Z,8.00
2023-01-25T15:33:28.899Z,9.20
2023-01-25T15:35:58.670Z,8.73
2023-01-25T15:38:27.051Z,8.00
2023-01-25T15:41:00.278Z,8.97
2023-01-25T15:43:28.627Z,9.63
2023-01-25T15:45:58.080Z,8.97
2023-01-25T15:48:31.626Z,10.00
2023-01-25T15:50:59.927Z,11.70
2023-01-25T15:53:28.524Z,11.13
2023-01-25T15:56:00.306Z,9.50
2023-01-25T15:58:31.675Z,11.67
2023-01-25T16:01:01.388Z,8.40
2023-01-25T16:03:30.288Z,10.03
2023-01-25T16:06:03.095Z,10.53
2023-01-25T16:08:32.009Z,10.07
2023-01-25T16:11:00.061Z,9.93
2023-01-25T16:13:28.081Z,10.50
2023-01-25T16:15:58.170Z,9.03
2023-01-25T16:18:27.574Z,8.40
2023-01-25T16:20:55.533Z,10.30
2023-01-25T16:23:23.545Z,9.80
2023-01-25T16:25:51.641Z,9.40
2023-01-25T16:28:19.649Z,8.83
2023-01-25T16:30:47.697Z,8.67
2023-01-25T16:33:15.765Z,9.67
2023-01-25T16:35:45.181Z,10.03
2023-01-25T16:38:13.593Z,10.47
2023-01-25T16:40:41.775Z,10.17
2023-01-25T16:43:09.941Z,10.40
2023-01-25T16:45:39.722Z,8.67
2023-01-25T16:48:08.286Z,8.40
2023-01-25T16:50:37.818Z,7.67
2023-01-25T16:53:07.408Z,10.00
2023-01-25T16:55:38.261Z,10.27
2023-01-25T16:58:06.378Z,8.80
2023-01-25T17:00:34.462Z,10.23
2023-01-25T17:03:02.511Z,9.43
2023-01-25T17:05:32.891Z,11.10
2023-01-25T17:08:01.097Z,9.07
2023-01-25T17:10:34.690Z,10.87
2023-01-25T17:13:02.974Z,11.97
2023-01-25T17:15:31.272Z,25.57
2023-01-25T17:17:59.539Z,10.80
2023-01-25T17:20:29.068Z,10.23
2023-01-25T17:22:57.393Z,11.33
2023-01-25T17:25:26.369Z,10.23
2023-01-25T17:27:56.048Z,10.73
2023-01-25T17:30:24.102Z,10.83
2023-01-25T17:32:52.092Z,11.10
2023-01-25T17:35:20.146Z,11.23
2023-01-25T17:37:48.148Z,12.13
2023-01-25T17:40:16.568Z,9.70
2023-01-25T17:42:44.564Z,10.83
2023-01-25T17:45:13.976Z,9.27
2023-01-25T17:47:41.948Z,11.60
2023-01-25T17:50:11.954Z,12.87
2023-01-25T17:52:40.208Z,10.30
2023-01-25T17:55:10.327Z,11.10
2023-01-25T17:57:38.308Z,10.67
2023-01-25T18:00:11.735Z,11.50
2023-01-25T18:02:44.906Z,10.83
2023-01-25T18:05:13.951Z,10.30
2023-01-25T18:07:41.975Z,10.73
2023-01-25T18:10:11.662Z,10.63
2023-01-25T18:12:40.000Z,10.90
2023-01-25T18:15:09.899Z,12.17
2023-01-25T18:17:39.096Z,11.33
2023-01-25T18:20:15.716Z,11.47
2023-01-25T18:22:44.276Z,11.10
2023-01-25T18:25:33.637Z,12.10
2023-01-25T18:28:01.839Z,10.23
2023-01-25T18:30:37.341Z,10.73
2023-01-25T18:33:06.046Z,11.53
2023-01-25T18:35:36.067Z,10.67
2023-01-25T18:38:04.114Z,13.03
2023-01-25T18:40:32.171Z,10.83
2023-01-25T18:43:00.223Z,11.33
2023-01-25T18:45:28.390Z,9.97
2023-01-25T18:47:56.396Z,10.17
2023-01-25T18:50:24.431Z,11.43
2023-01-25T18:52:55.714Z,9.50
2023-01-25T18:55:23.760Z,9.30
2023-01-25T18:57:51.820Z,10.67
2023-01-25T19:00:20.322Z,11.40
2023-01-25T19:02:48.381Z,9.60
2023-01-25T19:05:18.564Z,10.10
2023-01-25T19:07:46.653Z,10.00
2023-01-25T19:10:16.225Z,10.10
2023-01-25T19:12:44.325Z,13.17
2023-01-25T19:15:13.037Z,12.03
2023-01-25T19:17:41.121Z,10.07
2023-01-25T19:20:11.276Z,10.07
2023-01-25T19:22:40.499Z,9.63
2023-01-25T19:25:09.888Z,8.73
2023-01-25T19:27:39.389Z,8.33
2023-01-25T19:30:09.351Z,9.13
2023-01-25T19:32:37.371Z,11.20
2023-01-25T19:35:07.722Z,11.77
2023-01-25T19:37:35.956Z,17.13
2023-01-25T19:40:04.308Z,8.10
2023-01-25T19:42:32.688Z,8.37
2023-01-25T19:45:02.962Z,9.57
2023-01-25T19:47:30.965Z,11.57
2023-01-25T19:50:00.330Z,18.20
2023-01-25T19:52:28.427Z,24.10
2023-01-25T19:54:56.432Z,16.07
2023-01-25T19:57:24.520Z,9.63
2023-01-25T19:59:52.598Z,9.33
2023-01-25T20:02:21.985Z,7.73
2023-01-25T20:04:51.487Z,8.97
2023-01-25T20:07:19.667Z,8.43
2023-01-25T20:09:47.737Z,6.40
2023-01-25T20:12:15.770Z,6.27
2023-01-25T20:14:44.300Z,6.23
2023-01-25T20:17:12.439Z,8.00
2023-01-25T20:19:42.683Z,8.17
2023-01-25T20:22:12.464Z,7.00
2023-01-25T20:24:40.554Z,7.90
2023-01-25T20:27:08.818Z,8.70
2023-01-25T20:29:37.158Z,9.10
2023-01-25T20:32:05.794Z,7.40
2023-01-25T20:34:33.960Z,8.23
2023-01-25T20:37:03.323Z,7.60
2023-01-25T20:39:31.368Z,7.70
2023-01-25T20:41:59.966Z,5.77
2023-01-25T20:44:29.878Z,6.03
2023-01-25T20:46:58.185Z,5.70
2023-01-25T20:49:26.222Z,10.07
2023-01-25T20:51:54.219Z,6.73
2023-01-25T20:54:23.693Z,8.37
2023-01-25T20:56:51.827Z,6.10
2023-01-25T20:59:19.841Z,5.60
2023-01-25T21:01:47.964Z,9.00
2023-01-25T21:04:16.005Z,7.60
2023-01-25T21:06:44.050Z,5.27
2023-01-25T21:09:13.421Z,4.40
2023-01-25T21:11:43.032Z,3.77
2023-01-25T21:14:11.162Z,3.80
2023-01-25T21:16:39.181Z,3.73
2023-01-25T21:19:08.188Z,5.50
2023-01-25T21:21:38.136Z,4.50
2023-01-25T21:24:07.484Z,4.43
2023-01-25T21:26:38.766Z,3.43
2023-01-25T21:29:08.545Z,4.50
2023-01-25T21:31:39.217Z,4.30
2023-01-25T21:34:09.171Z,3.50
2023-01-25T21:36:37.493Z,4.60
2023-01-25T21:39:05.663Z,3.20
2023-01-25T21:41:34.303Z,3.70
2023-01-25T21:44:20.977Z,3.30
2023-01-25T21:49:56.123Z,4.17
2023-01-25T21:52:24.217Z,4.00
2023-01-25T21:54:52.216Z,5.10
2023-01-25T21:57:20.555Z,3.63
2023-01-25T21:59:48.852Z,3.33
2023-01-25T22:02:18.506Z,5.17
2023-01-25T22:04:46.652Z,5.57
2023-01-25T22:07:14.665Z,7.23
2023-01-25T22:09:42.760Z,5.67
2023-01-25T22:12:12.265Z,5.67
2023-01-25T22:14:40.549Z,6.60
2023-01-25T22:17:16.208Z,5.20
2023-01-25T22:19:44.265Z,5.13
2023-01-25T22:22:12.284Z,6.63
2023-01-25T22:24:40.341Z,6.43
2023-01-25T22:27:32.717Z,6.60
2023-01-25T22:30:00.778Z,7.37
2023-01-25T22:32:30.203Z,5.80
2023-01-25T22:34:58.224Z,6.13
2023-01-25T22:37:26.289Z,4.50
2023-01-25T22:39:58.226Z,5.67
2023-01-25T22:42:26.453Z,5.20
2023-01-25T22:44:54.491Z,5.33
2023-01-25T22:47:22.527Z,4.67
2023-01-25T22:49:51.871Z,4.03
2023-01-25T22:52:19.898Z,4.90
2023-01-25T22:54:50.144Z,5.40
2023-01-25T22:57:18.305Z,4.63
2023-01-25T22:59:46.366Z,4.50
2023-01-25T23:02:14.452Z,4.57
2023-01-25T23:04:42.534Z,4.40
2023-01-25T23:07:18.882Z,2.90
2023-01-25T23:09:51.281Z,3.53
2023-01-25T23:12:19.802Z,3.10
2023-01-25T23:14:54.073Z,2.80
2023-01-25T23:17:41.917Z,2.30
2023-01-25T23:20:13.342Z,3.00
2023-01-25T23:22:42.811Z,2.70
2023-01-25T23:25:12.450Z,3.37
2023-01-25T23:27:40.702Z,2.60
2023-01-25T23:30:11.517Z,2.90
2023-01-25T23:32:39.759Z,3.17
2023-01-25T23:35:08.894Z,3.30
2023-01-25T23:37:36.916Z,3.10
2023-01-25T23:40:08.839Z,2.43
2023-01-25T23:42:38.176Z,2.60
2023-01-25T23:45:07.899Z,2.87
2023-01-25T23:47:36.015Z,2.60
2023-01-25T23:50:04.595Z,2.47
2023-01-25T23:52:32.725Z,2.63
2023-01-25T23:55:00.700Z,3.27
2023-01-25T23:57:30.365Z,3.03
2023-01-25T23:59:58.406Z,3.90
